Time,TemperatureF,DewpointF,PressureIn,WindDirection,WindDirectionDegrees,WindSpeedMPH,WindSpeedGustMPH,Humidity,HourlyPrecipIn,Conditions,Clouds,dailyrainin,SoftwareType,DateUTC
2011-03-15 00:04:00,41.9,22.0,30.01,SE,135,0.0,0.0,45,0.00,,,0.00,open2300-1.11,2011-03-15 06:04:00,
2011-03-15 00:14:00,41.5,22.1,30.02,SE,135,0.0,0.0,46,0.00,,,0.00,open2300-1.11,2011-03-15 06:14:00,
2011-03-15 00:24:00,41.2,21.8,30.02,ESE,112,0.0,0.0,46,0.00,,,0.00,open2300-1.11,2011-03-15 06:24:00,
2011-03-15 00:34:00,40.6,21.3,30.02,ESE,112,0.0,0.0,46,0.00,,,0.00,open2300-1.11,2011-03-15 06:34:00,
2011-03-15 00:44:00,40.6,21.8,30.03,SSE,157,0.0,0.9,47,0.00,,,0.00,open2300-1.11,2011-03-15 06:44:00,
2011-03-15 00:54:00,41.0,22.7,30.02,East,90,1.8,7.4,48,0.00,,,0.00,open2300-1.11,2011-03-15 06:54:00,
2011-03-15 01:04:00,41.5,23.2,30.02,ENE,67,3.1,4.7,48,0.00,,,0.00,open2300-1.11,2011-03-15 07:04:00,
2011-03-15 01:14:00,41.7,23.4,30.02,ESE,112,6.3,6.3,48,0.00,,,0.00,open2300-1.11,2011-03-15 07:14:00,
2011-03-15 01:24:00,41.7,23.4,30.03,ESE,112,6.3,6.3,48,0.00,,,0.00,open2300-1.11,2011-03-15 07:24:00,
2011-03-15 01:34:00,41.5,23.2,30.03,East,90,8.3,8.3,48,0.00,,,0.00,open2300-1.11,2011-03-15 07:34:00,
2011-03-15 01:44:00,41.4,23.0,30.03,ESE,112,1.3,8.3,48,0.00,,,0.00,open2300-1.11,2011-03-15 07:44:00,
2011-03-15 01:54:00,41.0,23.2,30.03,ESE,112,5.8,5.8,49,0.00,,,0.00,open2300-1.11,2011-03-15 07:54:00,
2011-03-15 02:04:00,40.6,22.9,30.03,SE,135,1.3,6.3,49,0.00,,,0.00,open2300-1.11,2011-03-15 08:04:00,
2011-03-15 02:14:00,40.8,23.0,30.03,SE,135,2.7,3.6,49,0.00,,,0.00,open2300-1.11,2011-03-15 08:14:00,
2011-03-15 02:24:00,40.8,22.5,30.03,SE,135,0.0,2.7,48,0.00,,,0.00,open2300-1.11,2011-03-15 08:24:00,
2011-03-15 02:34:00,40.6,22.9,30.03,South,180,0.0,1.1,49,0.00,,,0.00,open2300-1.11,2011-03-15 08:34:00,
2011-03-15 02:44:00,40.3,22.5,30.03,SE,135,0.0,1.8,49,0.00,,,0.00,open2300-1.11,2011-03-15 08:44:00,
2011-03-15 02:54:00,39.9,22.8,30.03,SSE,157,0.0,1.1,50,0.00,,,0.00,open2300-1.11,2011-03-15 08:54:00,
2011-03-15 03:04:00,39.0,21.9,30.02,ESE,112,4.2,4.2,50,0.00,,,0.00,open2300-1.11,2011-03-15 09:04:00,
2011-03-15 03:14:00,39.0,22.8,30.02,SE,135,2.0,5.4,52,0.00,,,0.00,open2300-1.11,2011-03-15 09:14:00,
2011-03-15 03:24:00,38.8,22.6,30.02,ESE,112,3.8,3.8,52,0.00,,,0.00,open2300-1.11,2011-03-15 09:24:00,
2011-03-15 03:34:00,38.5,22.8,30.02,SE,135,4.9,4.9,53,0.00,,,0.00,open2300-1.11,2011-03-15 09:34:00,
2011-03-15 03:44:00,38.5,22.8,30.02,ESE,112,2.7,4.9,53,0.00,,,0.00,open2300-1.11,2011-03-15 09:44:00,
2011-03-15 03:54:00,38.5,22.8,30.03,SSE,157,1.1,3.4,53,0.00,,,0.00,open2300-1.11,2011-03-15 09:54:00,
2011-03-15 04:04:00,38.1,22.4,30.02,SSE,157,3.8,3.8,53,0.00,,,0.00,open2300-1.11,2011-03-15 10:04:00,
2011-03-15 04:14:00,37.9,22.7,30.02,East,90,3.4,5.4,54,0.00,,,0.00,open2300-1.11,2011-03-15 10:14:00,
2011-03-15 04:24:00,38.3,23.0,30.02,ESE,112,4.2,5.6,54,0.00,,,0.00,open2300-1.11,2011-03-15 10:24:00,
2011-03-15 04:34:00,38.5,22.8,30.02,SE,135,3.4,7.6,53,0.00,,,0.00,open2300-1.11,2011-03-15 10:34:00,
2011-03-15 04:44:00,38.1,22.4,30.02,ESE,112,3.8,3.8,53,0.00,,,0.00,open2300-1.11,2011-03-15 10:44:00,
2011-03-15 04:55:00,37.9,22.7,30.02,NE,45,6.9,6.9,54,0.00,,,0.00,open2300-1.11,2011-03-15 10:55:00,
2011-03-15 05:04:00,37.8,22.5,30.02,ESE,112,2.9,6.9,54,0.00,,,0.00,open2300-1.11,2011-03-15 11:04:00,
2011-03-15 05:14:00,37.2,22.5,30.02,ESE,112,2.5,4.7,55,0.00,,,0.00,open2300-1.11,2011-03-15 11:14:00,
2011-03-15 05:24:00,37.2,22.5,30.03,SSE,157,2.9,2.9,55,0.00,,,0.00,open2300-1.11,2011-03-15 11:24:00,
2011-03-15 05:35:00,37.0,22.8,30.02,ESE,112,4.2,4.2,56,0.00,,,0.00,open2300-1.11,2011-03-15 11:35:00,
2011-03-15 05:44:00,37.0,22.8,30.02,East,90,1.1,7.6,56,0.00,,,0.00,open2300-1.11,2011-03-15 11:44:00,
2011-03-15 05:54:00,37.0,22.8,30.02,SE,135,3.6,3.6,56,0.00,,,0.00,open2300-1.11,2011-03-15 11:54:00,
2011-03-15 06:04:00,36.7,22.4,30.02,ESE,112,6.5,6.5,56,0.00,,,0.00,open2300-1.11,2011-03-15 12:04:00,
2011-03-15 06:14:00,36.5,22.7,30.02,SE,135,1.1,9.8,57,0.00,,,0.00,open2300-1.11,2011-03-15 12:14:00,
2011-03-15 06:24:00,36.7,22.9,30.02,SE,135,0.0,1.1,57,0.00,,,0.00,open2300-1.11,2011-03-15 12:24:00,
2011-03-15 06:34:00,36.9,23.0,30.02,SE,135,1.6,3.4,57,0.00,,,0.00,open2300-1.11,2011-03-15 12:34:00,
2011-03-15 06:44:00,37.2,23.3,30.02,East,90,2.9,6.9,57,0.00,,,0.00,open2300-1.11,2011-03-15 12:44:00,
2011-03-15 06:54:00,37.6,23.2,30.02,East,90,0.0,2.9,56,0.00,,,0.00,open2300-1.11,2011-03-15 12:54:00,
2011-03-15 07:04:00,37.2,22.9,30.02,SSE,157,0.9,2.0,56,0.00,,,0.00,open2300-1.11,2011-03-15 13:04:00,
2011-03-15 07:14:00,36.7,22.9,30.02,SE,135,5.6,5.6,57,0.00,,,0.00,open2300-1.11,2011-03-15 13:14:00,
2011-03-15 07:24:00,36.5,22.7,30.03,SE,135,0.0,5.6,57,0.00,,,0.00,open2300-1.11,2011-03-15 13:24:00,
2011-03-15 07:34:00,36.5,22.7,30.03,ESE,112,5.8,6.3,57,0.00,,,0.00,open2300-1.11,2011-03-15 13:34:00,
2011-03-15 07:44:00,37.0,23.6,30.03,ESE,112,3.1,5.8,58,0.00,,,0.00,open2300-1.11,2011-03-15 13:44:00,
2011-03-15 07:54:00,37.4,23.5,30.03,ESE,112,2.2,5.8,57,0.00,,,0.00,open2300-1.11,2011-03-15 13:54:00,
2011-03-15 08:04:00,37.8,23.8,30.04,East,90,2.0,6.7,57,0.00,,,0.00,open2300-1.11,2011-03-15 14:04:00,
2011-03-15 08:14:00,37.9,24.0,30.04,SSE,157,2.7,5.8,57,0.00,,,0.00,open2300-1.11,2011-03-15 14:14:00,
2011-03-15 08:24:00,38.3,24.3,30.04,SE,135,1.3,4.7,57,0.00,,,0.00,open2300-1.11,2011-03-15 14:24:00,
2011-03-15 08:34:00,38.5,24.5,30.04,SE,135,3.8,6.0,57,0.00,,,0.00,open2300-1.11,2011-03-15 14:34:00,
2011-03-15 08:44:00,39.0,25.0,30.04,East,90,3.6,3.8,57,0.00,,,0.00,open2300-1.11,2011-03-15 14:44:00,
2011-03-15 08:54:00,39.4,24.9,30.04,ENE,67,6.0,6.0,56,0.00,,,0.00,open2300-1.11,2011-03-15 14:54:00,
2011-03-15 09:04:00,40.1,25.6,30.04,SE,135,1.8,6.0,56,0.00,,,0.00,open2300-1.11,2011-03-15 15:04:00,
2011-03-15 09:14:00,40.8,26.2,30.05,East,90,6.9,6.9,56,0.00,,,0.00,open2300-1.11,2011-03-15 15:14:00,
2011-03-15 09:24:00,41.4,26.7,30.04,ENE,67,5.8,7.6,56,0.00,,,0.00,open2300-1.11,2011-03-15 15:24:00,
2011-03-15 09:34:00,42.4,27.3,30.05,ENE,67,3.8,6.3,55,0.00,,,0.00,open2300-1.11,2011-03-15 15:34:00,
2011-03-15 09:44:00,43.3,27.8,30.04,ESE,112,0.0,6.0,54,0.00,,,0.00,open2300-1.11,2011-03-15 15:44:00,
2011-03-15 09:54:00,43.9,27.8,30.04,East,90,3.1,5.8,53,0.00,,,0.00,open2300-1.11,2011-03-15 15:54:00,
2011-03-15 10:04:00,45.1,28.5,30.04,ENE,67,1.6,6.3,52,0.00,,,0.00,open2300-1.11,2011-03-15 16:04:00,
2011-03-15 10:14:00,46.2,29.0,30.04,East,90,4.0,6.5,51,0.00,,,0.00,open2300-1.11,2011-03-15 16:14:00,
2011-03-15 10:24:00,47.1,29.4,30.04,ENE,67,6.5,6.5,50,0.00,,,0.00,open2300-1.11,2011-03-15 16:24:00,
2011-03-15 10:34:00,48.6,30.2,30.04,East,90,1.8,6.5,49,0.00,,,0.00,open2300-1.11,2011-03-15 16:34:00,
2011-03-15 10:44:00,50.0,31.1,30.03,ENE,67,2.7,3.8,48,0.00,,,0.00,open2300-1.11,2011-03-15 16:44:00,
2011-03-15 10:55:00,51.1,30.9,30.03,SE,135,2.2,2.9,46,0.00,,,0.00,open2300-1.11,2011-03-15 16:55:00,
2011-03-15 11:04:00,52.7,31.3,30.02,ESE,112,1.1,3.1,44,0.00,,,0.00,open2300-1.11,2011-03-15 17:04:00,
2011-03-15 11:14:00,54.1,32.0,30.03,SE,135,2.9,3.1,43,0.00,,,0.00,open2300-1.11,2011-03-15 17:14:00,
2011-03-15 11:24:00,55.2,33.0,30.02,SE,135,0.9,2.9,43,0.00,,,0.00,open2300-1.11,2011-03-15 17:24:00,
2011-03-15 11:34:00,56.7,32.6,30.02,South,180,0.0,3.1,40,0.00,,,0.00,open2300-1.11,2011-03-15 17:34:00,
2011-03-15 11:45:00,57.7,32.9,30.01,SE,135,1.8,1.8,39,0.00,,,0.00,open2300-1.11,2011-03-15 17:45:00,
2011-03-15 11:54:00,58.8,33.1,30.01,WSW,247,2.0,2.0,38,0.00,,,0.00,open2300-1.11,2011-03-15 17:54:00,
2011-03-15 12:04:00,59.9,33.4,30.01,WSW,247,0.7,3.6,37,0.00,,,0.00,open2300-1.11,2011-03-15 18:04:00,
2011-03-15 12:14:00,61.0,35.8,30.00,WSW,247,0.0,3.6,39,0.00,,,0.00,open2300-1.11,2011-03-15 18:14:00,
2011-03-15 12:24:00,61.7,34.2,30.00,SE,135,3.1,6.3,36,0.00,,,0.00,open2300-1.11,2011-03-15 18:24:00,
2011-03-15 12:35:00,62.6,35.8,30.00,West,270,2.7,4.2,37,0.00,,,0.00,open2300-1.11,2011-03-15 18:35:00,
2011-03-15 12:44:00,63.3,35.0,30.00,WSW,247,3.4,4.0,35,0.00,,,0.00,open2300-1.11,2011-03-15 18:44:00,
2011-03-15 12:54:00,63.7,34.6,29.99,WSW,247,2.5,6.0,34,0.00,,,0.00,open2300-1.11,2011-03-15 18:54:00,
2011-03-15 13:04:00,64.2,35.1,29.99,West,270,0.0,5.8,34,0.00,,,0.00,open2300-1.11,2011-03-15 19:04:00,
2011-03-15 13:14:00,64.8,34.8,29.98,WSW,247,0.7,4.5,33,0.00,,,0.00,open2300-1.11,2011-03-15 19:14:00,
2011-03-15 13:24:00,65.1,35.2,29.98,West,270,6.5,6.5,33,0.00,,,0.00,open2300-1.11,2011-03-15 19:24:00,
2011-03-15 13:35:00,65.8,35.8,29.98,WNW,292,1.3,6.5,33,0.00,,,0.00,open2300-1.11,2011-03-15 19:35:00,
2011-03-15 13:44:00,66.4,35.6,29.98,West,270,0.0,2.7,32,0.00,,,0.00,open2300-1.11,2011-03-15 19:44:00,
2011-03-15 13:54:00,66.7,35.8,29.97,East,90,0.0,6.3,32,0.00,,,0.00,open2300-1.11,2011-03-15 19:54:00,
2011-03-15 14:04:00,66.9,35.3,29.97,NW,315,3.6,3.6,31,0.00,,,0.00,open2300-1.11,2011-03-15 20:04:00,
2011-03-15 14:14:00,66.9,35.3,29.97,NNW,337,0.0,3.6,31,0.00,,,0.00,open2300-1.11,2011-03-15 20:14:00,
2011-03-15 14:24:00,67.1,34.7,29.97,WSW,247,2.9,7.4,30,0.00,,,0.00,open2300-1.11,2011-03-15 20:24:00,
2011-03-15 14:35:00,67.8,35.3,29.97,WSW,247,5.8,5.8,30,0.00,,,0.00,open2300-1.11,2011-03-15 20:35:00,
2011-03-15 14:44:00,68.2,34.6,29.96,WSW,247,2.9,5.8,29,0.00,,,0.00,open2300-1.11,2011-03-15 20:44:00,
2011-03-15 14:54:00,68.4,32.8,29.96,WNW,292,2.7,6.9,27,0.00,,,0.00,open2300-1.11,2011-03-15 20:54:00,
2011-03-15 15:04:00,67.6,33.1,29.96,West,270,0.0,2.7,28,0.00,,,0.00,open2300-1.11,2011-03-15 21:04:00,
2011-03-15 15:14:00,67.3,32.8,29.96,West,270,1.8,4.9,28,0.00,,,0.00,open2300-1.11,2011-03-15 21:14:00,
2011-03-15 15:24:00,67.6,33.1,29.95,WNW,292,2.7,3.1,28,0.00,,,0.00,open2300-1.11,2011-03-15 21:24:00,
2011-03-15 15:34:00,67.8,33.3,29.95,WSW,247,6.3,6.3,28,0.00,,,0.00,open2300-1.11,2011-03-15 21:34:00,
2011-03-15 15:44:00,68.5,32.9,29.95,SW,225,0.0,6.3,27,0.00,,,0.00,open2300-1.11,2011-03-15 21:44:00,
2011-03-15 15:54:00,68.9,33.2,29.95,NW,315,4.0,4.0,27,0.00,,,0.00,open2300-1.11,2011-03-15 21:54:00,
2011-03-15 16:04:00,69.1,32.4,29.95,ESE,112,0.9,5.8,26,0.00,,,0.00,open2300-1.11,2011-03-15 22:04:00,
2011-03-15 16:14:00,69.1,32.4,29.94,WNW,292,0.9,4.7,26,0.00,,,0.00,open2300-1.11,2011-03-15 22:14:00,
2011-03-15 16:24:00,69.6,31.8,29.95,WNW,292,0.0,4.9,25,0.00,,,0.00,open2300-1.11,2011-03-15 22:24:00,
2011-03-15 16:34:00,69.6,32.8,29.95,WSW,247,3.1,3.1,26,0.00,,,0.00,open2300-1.11,2011-03-15 22:34:00,
2011-03-15 16:44:00,70.2,33.3,29.95,WNW,292,1.3,6.3,26,0.00,,,0.00,open2300-1.11,2011-03-15 22:44:00,
2011-03-15 16:54:00,70.3,31.4,29.95,WSW,247,3.6,6.0,24,0.00,,,0.00,open2300-1.11,2011-03-15 22:54:00,
2011-03-15 17:04:00,70.7,31.8,29.94,West,270,5.1,5.1,24,0.00,,,0.00,open2300-1.11,2011-03-15 23:04:00,
2011-03-15 17:14:00,70.9,31.9,29.95,West,270,0.0,5.1,24,0.00,,,0.00,open2300-1.11,2011-03-15 23:14:00,
2011-03-15 17:24:00,71.8,31.6,29.94,WSW,247,2.0,2.0,23,0.00,,,0.00,open2300-1.11,2011-03-15 23:24:00,
2011-03-15 17:34:00,71.2,31.2,29.95,WNW,292,1.1,2.7,23,0.00,,,0.00,open2300-1.11,2011-03-15 23:34:00,
2011-03-15 17:44:00,70.0,31.1,29.94,WNW,292,4.9,4.9,24,0.00,,,0.00,open2300-1.11,2011-03-15 23:44:00,
2011-03-15 17:54:00,67.8,29.3,29.94,WNW,292,0.0,4.9,24,0.00,,,0.00,open2300-1.11,2011-03-15 23:54:00,
2011-03-15 18:04:00,66.7,29.4,29.94,WNW,292,0.4,1.8,25,0.00,,,0.00,open2300-1.11,2011-03-16 00:04:00,
2011-03-15 18:14:00,65.5,29.3,29.94,WSW,247,0.0,5.8,26,0.00,,,0.00,open2300-1.11,2011-03-16 00:14:00,
2011-03-15 18:24:00,64.6,28.5,29.94,WNW,292,0.9,1.6,26,0.00,,,0.00,open2300-1.11,2011-03-16 00:24:00,
2011-03-15 18:34:00,64.0,29.1,29.94,WNW,292,3.4,3.4,27,0.00,,,0.00,open2300-1.11,2011-03-16 00:34:00,
2011-03-15 18:44:00,63.1,28.3,29.95,WNW,292,0.0,3.4,27,0.00,,,0.00,open2300-1.11,2011-03-16 00:44:00,
2011-03-15 18:54:00,62.2,28.5,29.94,WNW,292,0.0,0.0,28,0.00,,,0.00,open2300-1.11,2011-03-16 00:54:00,
2011-03-15 19:04:00,61.5,28.8,29.94,WNW,292,0.0,0.0,29,0.00,,,0.00,open2300-1.11,2011-03-16 01:04:00,
2011-03-15 19:14:00,60.4,27.9,29.95,WNW,292,0.0,0.0,29,0.00,,,0.00,open2300-1.11,2011-03-16 01:14:00,
2011-03-15 19:24:00,59.2,27.8,29.95,WNW,292,0.0,0.0,30,0.00,,,0.00,open2300-1.11,2011-03-16 01:24:00,
2011-03-15 19:35:00,57.9,26.7,29.95,WNW,292,0.0,0.0,30,0.00,,,0.00,open2300-1.11,2011-03-16 01:35:00,
2011-03-15 19:44:00,57.0,26.6,29.96,WNW,292,0.0,0.0,31,0.00,,,0.00,open2300-1.11,2011-03-16 01:44:00,
2011-03-15 19:55:00,55.9,26.3,29.96,WNW,292,0.0,0.0,32,0.00,,,0.00,open2300-1.11,2011-03-16 01:55:00,
2011-03-15 20:04:00,55.2,26.4,29.96,WNW,292,0.0,0.0,33,0.00,,,0.00,open2300-1.11,2011-03-16 02:04:00,
2011-03-15 20:14:00,54.1,25.5,29.96,WNW,292,0.0,0.0,33,0.00,,,0.00,open2300-1.11,2011-03-16 02:14:00,
2011-03-15 20:24:00,52.9,25.1,29.96,WNW,292,0.0,0.0,34,0.00,,,0.00,open2300-1.11,2011-03-16 02:24:00,
2011-03-15 20:34:00,52.2,24.4,29.97,WNW,292,0.0,0.0,34,0.00,,,0.00,open2300-1.11,2011-03-16 02:34:00,
2011-03-15 20:44:00,51.4,24.5,29.97,WNW,292,0.0,0.0,35,0.00,,,0.00,open2300-1.11,2011-03-16 02:44:00,
2011-03-15 20:54:00,50.7,24.5,29.97,WNW,292,0.0,0.0,36,0.00,,,0.00,open2300-1.11,2011-03-16 02:54:00,
2011-03-15 21:04:00,50.4,24.9,29.97,WNW,292,0.0,0.0,37,0.00,,,0.00,open2300-1.11,2011-03-16 03:04:00,
2011-03-15 21:14:00,49.6,24.2,29.98,WNW,292,0.0,0.0,37,0.00,,,0.00,open2300-1.11,2011-03-16 03:14:00,
2011-03-15 21:24:00,48.9,23.6,29.98,WNW,292,0.0,0.0,37,0.00,,,0.00,open2300-1.11,2011-03-16 03:24:00,
2011-03-15 21:34:00,48.7,24.1,29.99,WNW,292,0.0,0.0,38,0.00,,,0.00,open2300-1.11,2011-03-16 03:34:00,
2011-03-15 21:44:00,48.0,23.5,29.99,WNW,292,0.0,0.0,38,0.00,,,0.00,open2300-1.11,2011-03-16 03:44:00,
2011-03-15 21:55:00,47.5,23.7,29.99,WNW,292,0.0,0.0,39,0.00,,,0.00,open2300-1.11,2011-03-16 03:55:00,
2011-03-15 22:04:00,47.1,23.3,29.99,WNW,292,0.0,0.0,39,0.00,,,0.00,open2300-1.11,2011-03-16 04:04:00,
2011-03-15 22:14:00,46.2,23.2,30.00,WNW,292,0.0,0.0,40,0.00,,,0.00,open2300-1.11,2011-03-16 04:14:00,
2011-03-15 22:24:00,46.0,23.6,29.99,WNW,292,0.0,0.0,41,0.00,,,0.00,open2300-1.11,2011-03-16 04:24:00,
2011-03-15 22:34:00,45.7,23.2,29.99,ENE,67,0.0,0.0,41,0.00,,,0.00,open2300-1.11,2011-03-16 04:34:00,
2011-03-15 22:44:00,45.3,23.5,29.99,East,90,0.0,3.1,42,0.00,,,0.00,open2300-1.11,2011-03-16 04:44:00,
2011-03-15 22:54:00,45.1,23.3,29.99,SE,135,0.0,0.0,42,0.00,,,0.00,open2300-1.11,2011-03-16 04:54:00,
2011-03-15 23:04:00,45.0,23.7,29.99,SSE,157,0.0,3.4,43,0.00,,,0.00,open2300-1.11,2011-03-16 05:04:00,
2011-03-15 23:14:00,45.1,24.4,29.99,SSE,157,0.9,3.6,44,0.00,,,0.00,open2300-1.11,2011-03-16 05:14:00,
2011-03-15 23:24:00,45.1,24.4,29.99,ESE,112,1.1,3.6,44,0.00,,,0.00,open2300-1.11,2011-03-16 05:24:00,
2011-03-15 23:34:00,45.1,24.4,29.99,East,90,5.6,5.6,44,0.00,,,0.00,open2300-1.11,2011-03-16 05:34:00,
2011-03-15 23:44:00,45.5,24.7,29.98,ESE,112,0.0,5.6,44,0.00,,,0.00,open2300-1.11,2011-03-16 05:44:00,
2011-03-15 23:54:00,45.5,24.7,29.98,East,90,0.0,3.4,44,0.00,,,0.00,open2300-1.11,2011-03-16 05:54:00,